Time;durP1;ratioP1;P1;durP2;ratioP2;P2;SDS_P1;SDS_P2;PMS_P1;PMS_P2;Temp;Humidity;BMP_temperature;BMP_pressure;BME280_temperature;BME280_humidity;BME280_pressure;Samples;Min_cycle;Max_cycle;Signal;HPM_P1;HPM_P2
2022/08/27 00:02:19;;;;;;;16.50;15.10;;;;;;;21.91;90.02;98403.03;4992855;28;103348;-62
2022/08/27 00:04:48;;;;;;;21.87;19.90;;;;;;;21.77;90.24;98392.28;4993440;28;103262;-61
2022/08/27 00:07:16;;;;;;;15.30;13.90;;;;;;;21.89;90.42;98398.88;4993248;28;103145;-62
2022/08/27 00:09:45;;;;;;;23.75;21.48;;;;;;;21.72;90.67;98397.38;4995444;28;103274;-62
2022/08/27 00:12:13;;;;;;;21.88;19.88;;;;;;;21.78;91.12;98393.94;5004092;28;104027;-62
2022/08/27 00:14:42;;;;;;;20.25;18.52;;;;;;;21.85;90.84;98401.06;4995036;28;103846;-62
2022/08/27 00:17:11;;;;;;;18.80;17.20;;;;;;;21.89;89.80;98398.88;4992972;28;103492;-62
2022/08/27 00:19:39;;;;;;;27.20;24.65;;;;;;;21.68;91.38;98406.84;4994949;28;104124;-62
2022/08/27 00:22:09;;;;;;;23.00;21.00;;;;;;;21.66;92.60;98409.72;4992105;28;103438;-62
2022/08/27 00:24:37;;;;;;;15.52;14.23;;;;;;;21.85;91.09;98406.44;4996318;28;103102;-62
2022/08/27 00:27:16;;;;;;;22.20;20.20;;;;;;;21.91;90.35;98404.88;4996967;28;103268;-62
2022/08/27 00:29:48;;;;;;;16.90;15.40;;;;;;;21.94;89.92;98408.03;4996678;28;102998;-63
2022/08/27 00:32:17;;;;;;;17.77;16.27;;;;;;;22.07;89.39;98409.19;4997231;28;103309;-63
2022/08/27 00:34:45;;;;;;;25.10;22.70;;;;;;;21.88;89.77;98410.63;4995572;28;103186;-62
2022/08/27 00:37:13;;;;;;;25.67;23.37;;;;;;;21.76;90.92;98407.56;4993792;28;103086;-63
2022/08/27 00:39:41;;;;;;;18.05;16.55;;;;;;;21.81;90.74;98420.47;4997857;28;102990;-62
2022/08/27 00:42:09;;;;;;;18.25;16.65;;;;;;;21.98;89.87;98416.53;4993266;28;103245;-62
2022/08/27 00:44:37;;;;;;;14.75;13.55;;;;;;;22.07;89.46;98415.41;4995601;28;103197;-62
2022/08/27 00:47:10;;;;;;;23.47;21.47;;;;;;;21.82;90.62;98401.44;4995653;28;102639;-62
2022/08/27 00:49:41;;;;;;;26.43;24.03;;;;;;;21.70;91.53;98404.78;4998200;28;104007;-63
2022/08/27 00:52:16;;;;;;;20.95;19.17;;;;;;;21.88;90.81;98405.25;4996206;28;103850;-62
2022/08/27 00:54:45;;;;;;;22.05;20.00;;;;;;;22.01;89.61;98404.59;4985130;28;103179;-62
2022/08/27 00:57:15;;;;;;;15.80;14.50;;;;;;;22.04;89.40;98405.03;4996422;28;103041;-62
2022/08/27 00:59:43;;;;;;;22.87;20.90;;;;;;;22.03;89.22;98402.53;4996703;28;103094;-62
2022/08/27 01:02:19;;;;;;;20.92;19.10;;;;;;;21.99;88.49;98399.38;4989104;28;103353;-62
2022/08/27 01:04:50;;;;;;;22.95;20.92;;;;;;;21.98;88.85;98402.28;4996756;28;103410;-62
2022/08/27 01:07:19;;;;;;;25.17;22.97;;;;;;;21.97;88.73;98401.44;4995353;28;102970;-62
2022/08/27 01:09:48;;;;;;;17.37;15.97;;;;;;;22.01;88.98;98405.41;4997151;28;103041;-62
2022/08/27 01:12:19;;;;;;;18.42;16.83;;;;;;;22.02;88.40;98404.38;4995118;28;103088;-62
2022/08/27 01:14:47;;;;;;;18.90;17.30;;;;;;;22.11;88.15;98405.94;4997042;28;103362;-62
2022/08/27 01:17:17;;;;;;;16.20;14.82;;;;;;;22.15;87.66;98403.69;4994375;28;103132;-62
2022/08/27 01:19:49;;;;;;;23.75;21.48;;;;;;;22.12;88.17;98404.09;4994213;28;102700;-62
2022/08/27 01:22:28;;;;;;;17.42;15.93;;;;;;;22.16;88.11;98398.13;4996322;28;103264;-62
2022/08/27 01:25:01;;;;;;;15.05;13.77;;;;;;;22.18;88.05;98385.31;4998465;28;102972;-62
2022/08/27 01:27:31;;;;;;;18.80;17.30;;;;;;;22.15;88.35;98384.84;4993957;28;102680;-62
2022/08/27 01:29:59;;;;;;;18.20;16.80;;;;;;;22.16;88.27;98384.69;4995323;28;102723;-62
2022/08/27 01:32:30;;;;;;;24.52;22.40;;;;;;;22.00;88.16;98384.94;4996126;28;103541;-62
2022/08/27 01:34:59;;;;;;;20.23;18.43;;;;;;;22.12;88.64;98386.06;4994256;28;103233;-62
2022/08/27 01:37:27;;;;;;;19.02;17.42;;;;;;;22.09;88.24;98389.13;4993580;28;103049;-62
2022/08/27 01:39:58;;;;;;;23.30;21.20;;;;;;;22.04;88.00;98394.25;4995914;28;103243;-63
2022/08/27 01:42:30;;;;;;;23.98;21.85;;;;;;;22.05;87.52;98390.56;4995690;28;103307;-62
2022/08/27 01:45:01;;;;;;;24.13;22.10;;;;;;;22.05;88.67;98389.72;4997313;28;103221;-63
2022/08/27 01:47:33;;;;;;;17.10;15.70;;;;;;;22.16;88.91;98384.69;4995146;28;102978;-62
2022/08/27 01:50:02;;;;;;;18.77;17.17;;;;;;;22.20;88.26;98385.13;4997851;28;102713;-62
2022/08/27 01:52:31;;;;;;;19.03;17.40;;;;;;;22.20;88.17;98388.66;4994109;28;103665;-62
2022/08/27 01:55:00;;;;;;;18.73;17.02;;;;;;;22.27;87.70;98383.31;4995800;28;103234;-62
2022/08/27 01:57:28;;;;;;;21.77;20.02;;;;;;;22.26;88.22;98382.47;4993469;28;102576;-62
2022/08/27 01:59:56;;;;;;;18.45;16.95;;;;;;;22.26;87.61;98387.06;4996453;28;102739;-62
2022/08/27 02:02:25;;;;;;;20.60;18.77;;;;;;;22.31;87.00;98379.25;4989113;28;103283;-62
2022/08/27 02:04:53;;;;;;;20.38;18.58;;;;;;;22.30;87.28;98383.78;4992733;28;103552;-62
2022/08/27 02:07:21;;;;;;;21.48;19.45;;;;;;;22.29;86.92;98376.72;4993589;28;102726;-62
2022/08/27 02:09:50;;;;;;;21.65;19.85;;;;;;;22.24;87.18;98372.94;4995680;28;104788;-62
2022/08/27 02:12:19;;;;;;;20.83;19.02;;;;;;;22.22;86.98;98378.53;4996483;28;103389;-70
2022/08/27 02:14:48;;;;;;;24.08;22.08;;;;;;;22.22;87.51;98375.84;4997005;27;103178;-62
2022/08/27 02:17:16;;;;;;;24.30;22.20;;;;;;;22.13;87.40;98381.53;4993631;28;102789;-62
2022/08/27 02:19:44;;;;;;;22.10;20.10;;;;;;;22.23;87.11;98377.50;4995866;28;102944;-62
2022/08/27 02:22:15;;;;;;;25.60;23.30;;;;;;;22.05;87.78;98377.13;4995223;28;102985;-64
2022/08/27 02:24:43;;;;;;;21.83;19.83;;;;;;;21.98;89.08;98384.25;4993639;28;103398;-62
2022/08/27 02:27:12;;;;;;;29.55;26.85;;;;;;;21.71;90.17;98383.09;4994372;28;102674;-62
2022/08/27 02:29:43;;;;;;;26.88;24.38;;;;;;;21.81;90.74;98383.63;4996351;28;102689;-62
2022/08/27 02:32:15;;;;;;;26.52;24.23;;;;;;;21.78;90.66;98386.69;4993047;28;103799;-62
2022/08/27 02:34:59;;;;;;;20.10;18.48;;;;;;;21.91;90.24;98383.38;4996132;28;103460;-62
2022/08/27 02:37:29;;;;;;;21.40;19.57;;;;;;;22.00;88.80;98387.63;5011025;27;102850;-62
2022/08/27 02:39:58;;;;;;;24.75;22.63;;;;;;;21.84;90.14;98387.78;4996937;28;102913;-62
2022/08/27 02:42:26;;;;;;;22.33;20.45;;;;;;;21.91;89.83;98386.91;4994053;28;103259;-62
2022/08/27 02:44:55;;;;;;;24.43;22.23;;;;;;;21.95;88.46;98384.66;4995097;28;103349;-62
2022/08/27 02:47:23;;;;;;;20.15;18.48;;;;;;;21.89;88.10;98386.22;4993960;28;102798;-62
2022/08/27 02:49:51;;;;;;;20.52;18.83;;;;;;;22.00;87.08;98387.63;4995496;28;102759;-63
2022/08/27 02:52:19;;;;;;;17.77;16.30;;;;;;;22.08;87.13;98384.81;4996228;28;103270;-62
2022/08/27 02:54:52;;;;;;;27.60;25.20;;;;;;;21.77;87.87;98392.28;4992085;28;103013;-62
2022/08/27 02:57:21;;;;;;;27.60;25.07;;;;;;;21.58;89.30;98393.72;4995499;28;103037;-62
2022/08/27 02:59:52;;;;;;;29.38;26.77;;;;;;;21.62;89.68;98394.97;4994090;28;102696;-62
2022/08/27 03:02:21;;;;;;;27.58;25.10;;;;;;;21.38;90.61;98393.44;4994816;28;104306;-62
2022/08/27 03:04:53;;;;;;;30.33;27.50;;;;;;;21.29;91.82;98393.72;4994556;28;103358;-62
2022/08/27 03:07:23;;;;;;;25.83;23.53;;;;;;;21.52;91.09;98399.00;4995682;28;102762;-62
2022/08/27 03:09:51;;;;;;;24.27;22.07;;;;;;;21.70;89.71;98392.19;4995557;28;102914;-62
2022/08/27 03:12:19;;;;;;;20.40;18.65;;;;;;;21.77;89.36;98392.28;4993257;28;103245;-62
2022/08/27 03:14:49;;;;;;;18.47;16.87;;;;;;;21.73;89.60;98389.13;4991674;28;103316;-62
2022/08/27 03:20:11;;;;;;;23.95;21.85;;;;;;;21.39;90.65;98388.88;4995201;28;102654;-62
2022/08/27 03:22:40;;;;;;;19.85;18.13;;;;;;;21.52;90.69;98397.13;4994779;28;103288;-62
2022/08/27 03:25:09;;;;;;;25.60;23.20;;;;;;;21.27;92.52;98396.59;4995082;28;103212;-63
2022/08/27 03:27:38;;;;;;;20.58;18.77;;;;;;;21.52;91.34;98396.28;4995166;28;102650;-63
2022/08/27 03:30:08;;;;;;;22.73;20.73;;;;;;;21.55;90.62;98393.25;4994356;28;102666;-63
2022/08/27 03:32:37;;;;;;;16.43;15.03;;;;;;;21.53;90.61;98400.66;4994858;28;103253;-63
2022/08/27 03:35:07;;;;;;;14.63;13.43;;;;;;;21.69;88.92;98395.91;4993944;28;103205;-63
2022/08/27 03:37:38;;;;;;;19.98;18.27;;;;;;;21.57;89.59;98396.56;4995283;28;102896;-63
2022/08/27 03:40:07;;;;;;;13.73;12.52;;;;;;;21.71;88.90;98390.34;4995686;28;103495;-63
2022/08/27 03:42:37;;;;;;;19.88;18.17;;;;;;;21.69;88.36;98397.75;4995526;28;102963;-63
2022/08/27 03:45:06;;;;;;;16.35;14.90;;;;;;;21.58;86.79;98399.09;4985098;28;103243;-63
2022/08/27 03:47:35;;;;;;;13.63;12.48;;;;;;;21.63;85.72;98395.81;4994073;28;103562;-63
2022/08/27 03:50:04;;;;;;;17.50;15.90;;;;;;;21.66;86.46;98384.69;4995121;28;103164;-62
2022/08/27 03:52:35;;;;;;;13.53;12.50;;;;;;;21.58;86.65;98392.88;4992642;28;103236;-63
2022/08/27 03:55:07;;;;;;;17.27;15.68;;;;;;;21.63;86.41;98387.75;4993471;28;103602;-63
2022/08/27 03:57:36;;;;;;;20.88;19.08;;;;;;;21.42;87.28;98382.31;4993327;28;103863;-63
2022/08/27 04:00:06;;;;;;;15.70;14.40;;;;;;;21.55;87.11;98391.38;4998851;28;103138;-63
2022/08/27 04:02:39;;;;;;;20.63;18.75;;;;;;;21.56;86.71;98384.16;4996409;28;103967;-62
2022/08/27 04:05:09;;;;;;;21.27;19.35;;;;;;;21.47;87.62;98385.28;4997315;28;103276;-62
2022/08/27 04:07:40;;;;;;;23.52;21.40;;;;;;;21.41;88.21;98386.88;4996801;28;102754;-62
2022/08/27 04:10:10;;;;;;;24.60;22.33;;;;;;;21.29;89.29;98374.91;4998989;28;103217;-62
2022/08/27 04:12:38;;;;;;;26.40;24.08;;;;;;;21.26;90.03;98375.28;4996574;28;103228;-62
2022/08/27 04:15:08;;;;;;;25.30;22.85;;;;;;;21.35;88.08;98376.84;4992513;28;103262;-62
2022/08/27 04:17:36;;;;;;;25.23;22.90;;;;;;;21.45;87.57;98387.31;4998027;28;102601;-62
2022/08/27 04:20:06;;;;;;;29.48;26.67;;;;;;;21.31;89.09;98380.91;4997622;28;102769;-63
2022/08/27 04:22:55;;;;;;;23.23;21.13;;;;;;;21.32;89.11;98378.06;4999564;28;103324;-74
2022/08/27 04:25:23;;;;;;;35.38;32.03;;;;;;;21.07;90.46;98381.19;4999054;28;103401;-74
2022/08/27 04:27:52;;;;;;;36.60;33.08;;;;;;;20.92;91.65;98383.00;4994064;28;103002;-63
2022/08/27 04:30:20;;;;;;;29.73;26.88;;;;;;;21.27;90.08;98380.50;4996519;28;102741;-63
2022/08/27 04:32:48;;;;;;;34.53;31.33;;;;;;;21.25;89.49;98387.03;4993872;28;104395;-74
2022/08/27 04:35:16;;;;;;;32.03;28.98;;;;;;;21.27;88.99;98382.34;4998422;28;103125;-63
2022/08/27 04:37:44;;;;;;;32.78;29.75;;;;;;;21.30;89.84;98385.50;4997853;28;102676;-63
2022/08/27 04:40:14;;;;;;;31.07;28.27;;;;;;;21.34;88.82;98389.44;4996744;28;102940;-64
2022/08/27 04:42:43;;;;;;;27.33;24.83;;;;;;;21.36;89.60;98387.41;4995325;28;103245;-64
2022/08/27 04:45:11;;;;;;;34.58;31.30;;;;;;;21.34;89.46;98388.63;4995673;28;103407;-74
2022/08/27 04:47:39;;;;;;;30.73;27.97;;;;;;;21.05;92.87;98397.47;5001124;27;102915;-74
2022/08/27 04:50:08;;;;;;;26.35;23.98;;;;;;;21.36;91.45;98394.66;4996295;28;103923;-74
2022/08/27 04:52:36;;;;;;;30.67;27.77;;;;;;;21.35;90.85;98391.13;4996561;28;103384;-73
2022/08/27 04:55:09;;;;;;;33.35;30.25;;;;;;;21.30;90.03;98392.72;4996699;28;103361;-64
2022/08/27 04:57:38;;;;;;;32.78;29.73;;;;;;;21.21;91.86;98391.97;4997417;28;102681;-74
2022/08/27 05:00:07;;;;;;;33.50;30.48;;;;;;;21.29;90.87;98391.88;4997529;28;104062;-65
2022/08/27 05:02:35;;;;;;;37.65;34.10;;;;;;;21.06;92.19;98393.78;4995270;28;103986;-64
2022/08/27 05:05:03;;;;;;;31.63;28.70;;;;;;;21.29;90.98;98393.72;4998219;28;103238;-74
2022/08/27 05:07:31;;;;;;;27.00;24.70;;;;;;;21.34;90.90;98397.50;4996555;28;102931;-64
2022/08/27 05:09:59;;;;;;;25.08;22.83;;;;;;;21.58;89.22;98400.94;4997885;28;102603;-64
2022/08/27 05:12:27;;;;;;;32.03;29.02;;;;;;;21.46;90.07;98389.81;4995335;28;103257;-73
2022/08/27 05:14:56;;;;;;;23.50;21.30;;;;;;;21.65;88.94;98391.09;4996925;28;103203;-64
2022/08/27 05:17:25;;;;;;;27.90;25.40;;;;;;;21.62;88.69;98399.50;4993448;28;103251;-64
2022/08/27 05:19:55;;;;;;;28.92;26.33;;;;;;;21.56;89.26;98390.34;4997890;27;102895;-74
2022/08/27 05:22:24;;;;;;;33.10;30.00;;;;;;;21.47;89.73;98393.34;4995182;28;103253;-74
2022/08/27 05:24:51;;;;;;;25.88;23.58;;;;;;;21.65;89.20;98388.38;4995753;28;103197;-64
2022/08/27 05:27:22;;;;;;;26.43;23.73;;;;;;;21.60;88.73;98388.13;4996880;28;102887;-64
2022/08/27 05:29:50;;;;;;;26.67;24.27;;;;;;;21.61;89.50;98387.13;4997025;28;102815;-64
2022/08/27 05:32:20;;;;;;;31.50;28.45;;;;;;;21.63;89.21;98390.44;4994237;28;103347;-64
2022/08/27 05:34:51;;;;;;;25.70;23.45;;;;;;;21.76;87.97;98385.22;4993271;28;103431;-64
2022/08/27 05:37:19;;;;;;;25.80;23.50;;;;;;;21.80;87.56;98392.72;4992281;28;103580;-65
2022/08/27 05:39:47;;;;;;;26.25;23.98;;;;;;;21.81;87.26;98390.88;4994114;28;103124;-64
2022/08/27 05:42:18;;;;;;;28.17;25.67;;;;;;;21.72;87.40;98389.31;4991486;28;104690;-64
2022/08/27 05:44:46;;;;;;;31.10;28.20;;;;;;;21.87;87.37;98392.81;4994702;28;103178;-74
2022/08/27 05:47:14;;;;;;;25.38;23.15;;;;;;;21.95;86.92;98385.47;4992747;28;102593;-74
2022/08/27 05:49:44;;;;;;;25.38;23.08;;;;;;;21.89;86.85;98386.22;4992658;28;102765;-63
2022/08/27 05:52:12;;;;;;;27.73;25.23;;;;;;;21.87;87.41;98392.81;4994699;28;104009;-74
2022/08/27 05:54:40;;;;;;;26.85;24.45;;;;;;;21.81;89.18;98383.63;4992857;28;103177;-74
2022/08/27 05:57:08;;;;;;;32.57;29.47;;;;;;;21.76;89.69;98385.22;4995162;28;103100;-64
2022/08/27 06:02:22;;;;;;;34.93;31.73;;;;;;;21.53;89.54;98400.66;5001639;27;103381;-64
2022/08/27 06:04:52;;;;;;;34.22;30.92;;;;;;;21.69;88.75;98400.44;4993690;28;103259;-64
2022/08/27 06:07:22;;;;;;;34.20;31.10;;;;;;;21.82;87.83;98400.59;4993781;28;102828;-74
2022/08/27 06:09:50;;;;;;;35.00;31.75;;;;;;;21.78;87.12;98399.31;4992946;28;103083;-64
2022/08/27 06:12:18;;;;;;;36.25;32.85;;;;;;;21.55;89.64;98399.44;4994418;28;103301;-64
2022/08/27 06:14:54;;;;;;;37.13;33.50;;;;;;;21.44;89.46;98401.78;4991179;28;103376;-64
2022/08/27 06:17:23;;;;;;;37.70;34.05;;;;;;;21.50;89.57;98401.03;4993853;28;102714;-63
2022/08/27 06:19:52;;;;;;;32.30;29.40;;;;;;;21.48;91.41;98403.06;4995092;28;102659;-63
2022/08/27 06:22:20;;;;;;;30.10;27.30;;;;;;;21.78;89.91;98399.31;4993520;28;104229;-64
2022/08/27 06:24:49;;;;;;;30.65;27.85;;;;;;;21.91;88.45;98404.88;4991271;28;102980;-64
2022/08/27 06:27:20;;;;;;;35.42;32.13;;;;;;;21.79;88.67;98407.19;4994487;28;102657;-64
2022/08/27 06:29:48;;;;;;;32.75;29.85;;;;;;;22.05;87.29;98401.31;4987548;28;102749;-73
2022/08/27 06:32:16;;;;;;;30.55;27.75;;;;;;;22.07;87.77;98399.25;4990407;28;103245;-74
2022/08/27 06:34:44;;;;;;;33.53;30.53;;;;;;;21.87;88.20;98408.97;4992727;28;103204;-64
2022/08/27 06:37:13;;;;;;;32.50;29.45;;;;;;;21.84;88.22;98404.75;4993303;28;102605;-64
2022/08/27 06:39:41;;;;;;;34.42;31.33;;;;;;;21.77;88.74;98413.78;4990531;28;102777;-74
2022/08/27 06:42:12;;;;;;;32.88;29.63;;;;;;;21.95;88.19;98411.56;4991828;28;104047;-74
2022/08/27 06:44:41;;;;;;;33.10;30.00;;;;;;;21.85;88.32;98411.81;4991785;28;103201;-64
2022/08/27 06:47:09;;;;;;;35.03;31.80;;;;;;;21.42;91.68;98415.38;4993494;28;102707;-64
2022/08/27 06:49:39;;;;;;;33.70;30.53;;;;;;;21.79;89.53;98415.25;4995979;28;102934;-75
2022/08/27 06:52:07;;;;;;;32.22;29.23;;;;;;;21.90;89.54;98419.34;4995068;28;103018;-75
2022/08/27 06:54:39;;;;;;;32.92;29.77;;;;;;;21.67;88.03;98419.44;4992729;28;103257;-75
2022/08/27 06:57:07;;;;;;;29.40;26.77;;;;;;;21.71;90.02;98410.00;4997918;28;102991;-75
2022/08/27 06:59:34;;;;;;;32.30;29.20;;;;;;;21.67;88.92;98414.06;5002891;28;103182;-65
2022/08/27 07:02:05;;;;;;;25.50;23.30;;;;;;;21.98;88.70;98415.72;4995823;28;103406;-65
2022/08/27 07:04:33;;;;;;;32.67;29.65;;;;;;;21.80;89.38;98414.25;4994703;28;102658;-64
2022/08/27 07:07:02;;;;;;;32.03;28.98;;;;;;;21.87;88.71;98420.56;4996446;28;102583;-64
2022/08/27 07:09:31;;;;;;;27.23;24.33;;;;;;;22.17;87.51;98413.25;4992533;28;103244;-75
2022/08/27 07:12:01;;;;;;;31.17;28.20;;;;;;;21.92;88.58;98418.13;4993298;28;102740;-75
2022/08/27 07:14:30;;;;;;;32.10;29.02;;;;;;;21.71;88.93;98410.00;4967899;28;103202;-75
2022/08/27 07:17:07;;;;;;;33.40;30.27;;;;;;;21.47;89.95;98413.00;4985077;28;102799;-75
2022/08/27 07:19:38;;;;;;;33.05;29.75;;;;;;;21.59;89.92;98419.53;4991267;28;103019;-65
2022/08/27 07:22:09;;;;;;;32.17;28.77;;;;;;;21.79;90.26;98417.09;4987003;28;103244;-65
2022/08/27 07:24:40;;;;;;;29.13;26.37;;;;;;;22.10;90.45;98420.41;4983596;28;103640;-77
2022/08/27 07:27:13;;;;;;;30.45;27.65;;;;;;;21.99;92.77;98426.28;5005023;27;103549;-66
2022/08/27 07:29:41;;;;;;;31.40;28.40;;;;;;;21.99;90.15;98428.97;4986788;28;103208;-76
2022/08/27 07:32:09;;;;;;;30.75;27.85;;;;;;;22.15;89.59;98425.19;4990540;28;103509;-76
2022/08/27 07:34:38;;;;;;;35.65;32.13;;;;;;;22.21;90.39;98443.28;4986883;28;103175;-75
2022/08/27 07:37:06;;;;;;;29.90;27.15;;;;;;;22.32;88.39;98440.91;4989609;28;102815;-66
2022/08/27 07:39:34;;;;;;;20.98;19.17;;;;;;;22.44;88.87;98434.00;4986363;28;102791;-66
2022/08/27 07:44:48;;;;;;;27.85;25.40;;;;;;;22.28;90.69;98442.34;4985301;28;103253;-75
2022/08/27 07:47:17;;;;;;;30.57;27.67;;;;;;;22.34;88.89;98441.56;4985798;28;103311;-75
2022/08/27 07:49:45;;;;;;;37.08;33.58;;;;;;;21.81;92.32;98445.47;4994074;28;103028;-66
2022/08/27 07:52:16;;;;;;;29.33;26.60;;;;;;;22.25;90.05;98437.34;4980067;27;103236;-76
2022/08/27 07:54:44;;;;;;;28.80;26.08;;;;;;;22.18;89.68;98446.34;4993870;28;103358;-66
2022/08/27 07:57:13;;;;;;;34.33;31.02;;;;;;;22.13;89.57;98446.94;4988157;28;102762;-65
2022/08/27 07:59:42;;;;;;;33.00;29.88;;;;;;;22.07;91.74;98445.00;4987979;28;103072;-76
2022/08/27 08:02:14;;;;;;;34.47;31.17;;;;;;;21.65;93.05;98452.91;4983570;28;103964;-66
2022/08/27 08:04:42;;;;;;;31.05;28.27;;;;;;;21.82;91.35;98452.53;4987899;28;103771;-65
2022/08/27 08:07:10;;;;;;;36.90;33.37;;;;;;;21.24;94.83;98450.69;4989127;28;102971;-65
2022/08/27 08:09:38;;;;;;;35.75;32.25;;;;;;;21.36;94.81;98454.56;4983165;28;103346;-65
2022/08/27 08:12:07;;;;;;;39.75;35.85;;;;;;;20.85;98.24;98455.41;4987032;28;104091;-75
2022/08/27 08:14:36;;;;;;;37.08;33.45;;;;;;;20.91;98.97;98459.22;4981021;28;103207;-65
2022/08/27 08:17:06;;;;;;;33.30;30.40;;;;;;;21.09;98.45;98452.53;4988402;28;102909;-65
2022/08/27 08:19:39;;;;;;;37.50;33.70;;;;;;;21.15;96.65;98456.31;4990513;28;102844;-65
2022/08/27 08:22:07;;;;;;;37.03;33.40;;;;;;;20.82;98.74;98455.78;4989687;28;103938;-65
2022/08/27 08:24:35;;;;;;;33.65;30.63;;;;;;;21.07;97.89;98462.63;4984355;28;103893;-75
2022/08/27 08:27:04;;;;;;;39.60;35.40;;;;;;;20.72;99.93;98463.22;4989918;28;103024;-65
2022/08/27 08:29:36;;;;;;;40.78;36.60;;;;;;;20.59;100.00;98461.16;4986320;28;102636;-66
2022/08/27 08:32:05;;;;;;;35.63;32.38;;;;;;;21.05;100.00;98461.09;4986275;28;103964;-66
2022/08/27 08:34:34;;;;;;;23.73;21.73;;;;;;;21.67;96.23;98469.69;4972373;28;103330;-75
2022/08/27 08:37:05;;;;;;;23.30;21.17;;;;;;;21.97;94.13;98468.69;4987202;28;103347;-76
2022/08/27 08:39:34;;;;;;;37.53;34.03;;;;;;;21.36;97.17;98465.31;4980073;28;102965;-75
2022/08/27 08:42:04;;;;;;;31.33;28.58;;;;;;;21.48;97.68;98478.31;4984886;28;103589;-76
2022/08/27 08:44:36;;;;;;;31.42;28.63;;;;;;;21.66;96.03;98470.72;4988827;28;103217;-77
2022/08/27 08:47:09;;;;;;;39.23;35.47;;;;;;;21.01;99.02;98476.75;4993560;28;102929;-76
2022/08/27 08:49:49;;;;;;;37.33;33.72;;;;;;;21.13;100.00;98483.38;4987361;28;103104;-74
2022/08/27 08:52:38;;;;;;;37.03;33.33;;;;;;;21.03;100.00;98472.00;4988454;28;103672;-76
2022/08/27 08:55:22;;;;;;;31.40;28.50;;;;;;;21.17;100.00;98481.97;4985925;28;103367;-66
2022/08/27 08:58:01;;;;;;;29.40;26.77;;;;;;;21.29;100.00;98485.91;4991082;27;102810;-66
2022/08/27 09:00:32;;;;;;;23.03;20.80;;;;;;;20.66;100.00;98486.25;4983965;28;104163;-66
2022/08/27 09:03:00;;;;;;;19.67;17.77;;;;;;;20.77;100.00;98482.34;4986815;28;104029;-66
2022/08/27 09:05:29;;;;;;;15.20;13.90;;;;;;;20.79;100.00;98489.19;4983645;28;103227;-66
2022/08/27 09:08:07;;;;;;;17.90;16.47;;;;;;;20.92;100.00;98485.88;4989476;28;102888;-74
2022/08/27 09:11:06;;;;;;;17.40;15.77;;;;;;;21.17;100.00;98498.09;4989583;28;102952;-65
2022/08/27 09:13:40;;;;;;;15.55;14.25;;;;;;;21.58;98.60;98490.47;4982452;28;103365;-75
2022/08/27 09:16:08;;;;;;;13.93;12.68;;;;;;;21.93;97.54;98494.25;4987260;28;103268;-65
2022/08/27 09:18:39;;;;;;;15.00;13.80;;;;;;;21.54;99.53;98496.38;4980557;27;103162;-66
2022/08/27 09:21:20;;;;;;;17.03;15.47;;;;;;;21.50;97.76;98492.41;4999247;28;103737;-65
2022/08/27 09:24:06;;;;;;;18.42;16.80;;;;;;;21.19;99.20;98501.44;4988135;28;103089;-66
2022/08/27 09:26:39;;;;;;;16.23;14.93;;;;;;;21.63;99.17;98495.28;4985316;28;103385;-66
2022/08/27 09:29:15;;;;;;;17.85;16.27;;;;;;;21.59;99.04;98489.44;4985542;28;103237;-65
2022/08/27 09:31:46;;;;;;;18.08;16.58;;;;;;;21.15;98.59;98489.41;4985394;28;102814;-65
2022/08/27 09:34:16;;;;;;;16.87;15.47;;;;;;;21.13;100.00;98483.38;4979443;28;103019;-64
2022/08/27 09:37:02;;;;;;;19.25;17.65;;;;;;;21.25;100.00;98489.97;4985010;28;103248;-74
2022/08/27 09:39:40;;;;;;;15.95;14.75;;;;;;;21.64;99.28;98488.88;4987933;28;102745;-72
2022/08/27 09:42:09;;;;;;;17.63;16.23;;;;;;;21.82;97.00;98486.63;4967116;28;103040;-74
2022/08/27 09:44:47;;;;;;;19.57;17.87;;;;;;;21.90;95.50;98484.72;4984733;28;103266;-74
2022/08/27 09:47:20;;;;;;;23.55;21.48;;;;;;;21.35;99.06;98487.84;4984293;28;103179;-75
2022/08/27 09:49:50;;;;;;;18.60;17.02;;;;;;;21.83;98.98;98482.94;4990824;28;102660;-75
2022/08/27 09:52:31;;;;;;;19.50;17.95;;;;;;;22.00;96.68;98484.44;4989701;28;103120;-75
2022/08/27 09:55:07;;;;;;;21.17;19.35;;;;;;;21.90;96.21;98481.19;4990004;28;103042;-76
2022/08/27 09:57:40;;;;;;;18.85;17.25;;;;;;;21.97;96.88;98478.59;4988759;28;103483;-75
2022/08/27 10:00:16;;;;;;;22.10;20.00;;;;;;;22.05;96.26;98478.47;4988444;28;103028;-76
2022/08/27 10:02:52;;;;;;;21.77;19.90;;;;;;;22.25;94.50;98483.09;4992427;28;102978;-76
2022/08/27 10:05:27;;;;;;;24.10;22.00;;;;;;;22.00;94.28;98479.06;4992607;28;104053;-76
2022/08/27 10:08:02;;;;;;;22.23;20.33;;;;;;;22.20;95.00;98469.38;4996588;28;103401;-74
2022/08/27 10:10:44;;;;;;;26.20;23.67;;;;;;;21.96;94.21;98483.13;4995180;28;103765;-74
2022/08/27 10:13:19;;;;;;;25.10;22.80;;;;;;;21.89;95.75;98479.53;4997508;28;102650;-75
2022/08/27 10:16:02;;;;;;;22.10;20.20;;;;;;;22.24;95.71;98481.41;4994220;28;104283;-75
2022/08/27 10:18:40;;;;;;;25.73;23.48;;;;;;;21.95;95.65;98476.09;4997417;28;103263;-75
2022/08/27 10:21:15;;;;;;;19.67;17.90;;;;;;;22.36;94.66;98469.13;4995814;28;102950;-75
2022/08/27 10:23:52;;;;;;;23.55;21.63;;;;;;;22.10;94.20;98474.19;4997169;28;103046;-76
2022/08/27 10:26:26;;;;;;;21.77;19.90;;;;;;;22.36;94.65;98474.50;4993982;28;103352;-76
2022/08/27 10:29:13;;;;;;;25.80;23.50;;;;;;;21.77;94.97;98473.78;4997048;28;103263;-76
2022/08/27 10:31:51;;;;;;;23.97;21.67;;;;;;;21.98;95.55;98481.09;4991978;28;103122;-76
2022/08/27 10:34:30;;;;;;;24.33;22.23;;;;;;;21.89;95.18;98487.59;4994679;28;103120;-76
2022/08/27 10:37:10;;;;;;;18.10;16.50;;;;;;;22.45;93.07;98489.53;4993447;28;104466;-77
2022/08/27 10:40:01;;;;;;;21.38;19.42;;;;;;;22.52;92.12;98500.34;4981109;28;104131;-76
2022/08/27 10:42:39;;;;;;;23.95;21.60;;;;;;;22.24;93.12;98492.16;4989821;28;102740;-76
2022/08/27 10:45:16;;;;;;;24.47;22.17;;;;;;;21.84;92.56;98489.97;4985412;28;102787;-78
2022/08/27 10:48:10;;;;;;;25.58;23.25;;;;;;;21.65;97.46;98487.84;4984070;28;103555;-78
2022/08/27 10:50:46;;;;;;;24.63;22.40;;;;;;;21.99;97.24;98493.53;4985498;28;103138;-75
2022/08/27 10:53:25;;;;;;;20.65;18.92;;;;;;;22.47;93.90;98498.22;4979102;28;102696;-74
2022/08/27 10:56:06;;;;;;;24.58;22.38;;;;;;;22.07;95.13;98495.25;4987639;28;102895;-75
2022/08/27 10:58:50;;;;;;;21.58;19.67;;;;;;;21.92;95.45;98503.38;4986200;28;103015;-75
2022/08/27 11:01:27;;;;;;;20.80;19.00;;;;;;;22.03;95.64;98508.28;4987907;28;103484;-75
2022/08/27 11:04:01;;;;;;;24.27;22.07;;;;;;;22.16;93.15;98511.13;4986239;28;102967;-76
2022/08/27 11:06:34;;;;;;;22.57;20.47;;;;;;;22.52;92.43;98511.94;4983594;28;102926;-77
2022/08/27 11:09:10;;;;;;;21.15;19.35;;;;;;;22.66;91.41;98521.03;4982435;28;103390;-75
2022/08/27 11:11:42;;;;;;;23.60;21.50;;;;;;;22.35;92.88;98512.38;4999260;27;103333;-75
2022/08/27 11:14:36;;;;;;;24.92;22.70;;;;;;;22.34;90.31;98508.81;4973637;28;102969;-75
2022/08/27 11:17:09;;;;;;;24.83;22.52;;;;;;;22.27;91.15;98513.31;4989738;28;103129;-79
2022/08/27 11:19:59;;;;;;;26.63;24.03;;;;;;;21.88;93.78;98512.81;4982979;28;103296;-78
2022/08/27 11:22:33;;;;;;;28.50;25.80;;;;;;;22.34;93.46;98505.34;4988490;28;103350;-72
2022/08/27 11:25:15;;;;;;;22.58;20.38;;;;;;;22.86;92.76;98508.59;4984723;28;103167;-67
2022/08/27 11:27:45;;;;;;;24.70;22.33;;;;;;;23.02;91.18;98507.47;4985913;28;103904;-64
2022/08/27 11:30:24;;;;;;;23.63;21.52;;;;;;;23.10;92.29;98507.38;4985924;28;103277;-74
2022/08/27 11:33:04;;;;;;;25.65;23.25;;;;;;;22.90;91.81;98500.97;4991108;28;103177;-68
2022/08/27 11:35:49;;;;;;;26.17;23.70;;;;;;;23.14;90.98;98497.84;4993623;28;102849;-68
2022/08/27 11:38:44;;;;;;;20.93;19.20;;;;;;;23.39;89.93;98503.66;4995221;28;102732;-70